Terminal Aerodrome Forecast
Issued by NWS Tampa Bay Area, FL

Home | Current Version | Previous Version | Text Only | Print | Product List | Glossary On
Versions: 1 2 3 4 5 6 7 8 9 10 11 12 13 14 15 16
000
FTUS42 KTBW 231850 AAA
TAFFMY
TAF AMD
KFMY 231850Z 2319/2418 12010KT P6SM SCT035 BKN050
     FM240100 09004KT P6SM SCT050
     FM240900 VRB03KT 6SM BR SKC
     FM241400 13007KT P6SM SCT025=

USA.gov is the U.S. government's official web portal to all federal, state and local government web resources and services.